Time;durP1;ratioP1;P1;durP2;ratioP2;P2;SDS_P1;SDS_P2;PMS_P1;PMS_P2;Temp;Humidity;BMP_temperature;BMP_pressure;BME280_temperature;BME280_humidity;BME280_pressure;Samples;Min_cycle;Max_cycle;Signal;HPM_P1;HPM_P2
2022/07/08 00:01:40;;;;;;;8.98;3.28;;;14.40;99.90;;;;;;4921437;28;87907;-32
2022/07/08 00:04:06;;;;;;;8.60;3.10;;;14.40;99.90;;;;;;4945522;23;90256;-31
2022/07/08 00:06:31;;;;;;;4.03;2.38;;;14.40;99.90;;;;;;4919599;28;89569;-31
2022/07/08 00:08:57;;;;;;;7.63;2.53;;;14.40;99.90;;;;;;4921777;28;90877;-31
2022/07/08 00:11:23;;;;;;;3.97;2.50;;;14.40;99.90;;;;;;4920982;28;89008;-31
2022/07/08 00:13:48;;;;;;;2.67;1.80;;;14.30;99.90;;;;;;4922163;28;89219;-30
2022/07/08 00:16:14;;;;;;;8.25;2.80;;;14.30;99.90;;;;;;4920523;28;90187;-32
2022/07/08 00:18:40;;;;;;;15.75;2.38;;;14.30;99.90;;;;;;4921122;28;89484;-30
2022/07/08 00:21:05;;;;;;;9.40;3.13;;;14.30;99.90;;;;;;4920672;28;88630;-31
2022/07/08 00:23:31;;;;;;;9.20;2.58;;;14.30;99.90;;;;;;4921175;28;90681;-32
2022/07/08 00:25:57;;;;;;;8.77;3.50;;;14.30;99.90;;;;;;4921479;28;90081;-31
2022/07/08 00:28:22;;;;;;;6.03;3.28;;;14.20;99.90;;;;;;4920380;28;89410;-32
2022/07/08 00:30:48;;;;;;;10.07;2.90;;;14.20;99.90;;;;;;4921705;28;88414;-30
2022/07/08 00:33:14;;;;;;;2.78;1.70;;;14.20;99.90;;;;;;4920366;28;92191;-33
2022/07/08 00:35:39;;;;;;;10.50;2.42;;;14.20;99.90;;;;;;4920408;28;88768;-32
2022/07/08 00:38:05;;;;;;;7.97;2.85;;;14.20;99.90;;;;;;4921538;28;89460;-31
2022/07/08 00:40:31;;;;;;;7.88;2.75;;;14.20;99.90;;;;;;4920334;28;88062;-30
2022/07/08 00:42:56;;;;;;;6.20;2.40;;;14.10;99.90;;;;;;4920798;28;91172;-31
2022/07/08 00:45:22;;;;;;;4.53;2.70;;;14.10;99.90;;;;;;4920053;28;91691;-32
2022/07/08 00:47:47;;;;;;;4.45;2.50;;;14.10;99.90;;;;;;4921034;28;90857;-32
2022/07/08 00:50:13;;;;;;;5.20;2.80;;;14.10;99.90;;;;;;4921020;28;90529;-32
2022/07/08 00:52:39;;;;;;;7.35;2.90;;;14.10;99.90;;;;;;4894434;28;90629;-31
2022/07/08 00:55:07;;;;;;;4.97;2.30;;;14.10;99.90;;;;;;4900612;28;89603;-33
2022/07/08 00:57:33;;;;;;;11.57;4.17;;;14.10;99.90;;;;;;4901465;28;88433;-30
2022/07/08 00:59:59;;;;;;;8.32;3.17;;;14.00;99.90;;;;;;4901325;28;89269;-29
2022/07/08 01:02:25;;;;;;;4.65;2.33;;;14.10;99.90;;;;;;4901657;28;90814;-33
2022/07/08 01:04:51;;;;;;;5.50;2.53;;;14.00;99.90;;;;;;4900480;28;89801;-33
2022/07/08 01:07:18;;;;;;;7.05;2.55;;;14.00;99.90;;;;;;4901449;28;89450;-34
2022/07/08 01:09:43;;;;;;;5.40;2.45;;;14.00;99.90;;;;;;4901301;28;88783;-32
2022/07/08 01:12:09;;;;;;;3.60;2.33;;;14.00;99.90;;;;;;4901206;28;90690;-32
2022/07/08 01:14:35;;;;;;;14.10;2.70;;;14.00;99.90;;;;;;4901309;28;89653;-31
2022/07/08 01:17:00;;;;;;;8.50;3.47;;;14.00;99.90;;;;;;4900058;28;89431;-33
2022/07/08 01:19:26;;;;;;;5.65;2.60;;;13.90;99.90;;;;;;4901465;28;89308;-32
2022/07/08 01:21:52;;;;;;;6.90;2.42;;;14.00;99.90;;;;;;4901194;28;91538;-30
2022/07/08 01:24:18;;;;;;;4.72;2.05;;;13.90;99.90;;;;;;4900874;28;90263;-31
2022/07/08 01:26:44;;;;;;;13.18;3.58;;;13.90;99.90;;;;;;4901077;28;89588;-31
2022/07/08 01:29:11;;;;;;;10.05;2.85;;;13.90;99.90;;;;;;4900751;28;89215;-34
2022/07/08 01:31:37;;;;;;;11.98;2.88;;;13.90;99.90;;;;;;4900965;28;90390;-33
2022/07/08 01:34:03;;;;;;;6.07;2.78;;;13.90;99.90;;;;;;4900344;28;90794;-32
2022/07/08 01:36:29;;;;;;;7.53;2.65;;;13.90;99.90;;;;;;4900868;28;91549;-31
2022/07/08 01:38:54;;;;;;;6.80;2.33;;;13.90;99.90;;;;;;4900437;28;88604;-30
2022/07/08 01:41:20;;;;;;;7.57;2.88;;;13.80;99.90;;;;;;4900917;28;92105;-32
2022/07/08 01:43:45;;;;;;;5.00;2.28;;;13.80;99.90;;;;;;4900486;28;89930;-33
2022/07/08 01:46:11;;;;;;;3.55;2.20;;;13.70;99.90;;;;;;4901668;28;89527;-31
2022/07/08 01:48:37;;;;;;;5.65;1.70;;;13.70;99.90;;;;;;4903773;28;89122;-31
2022/07/08 01:51:03;;;;;;;4.60;2.40;;;13.70;99.90;;;;;;4904151;28;90346;-31
2022/07/08 01:53:28;;;;;;;3.75;2.72;;;13.60;99.90;;;;;;4903721;28;89682;-30
2022/07/08 01:55:54;;;;;;;4.47;2.80;;;13.60;99.90;;;;;;4904209;28;89863;-34
2022/07/08 01:58:20;;;;;;;7.82;2.90;;;13.50;99.90;;;;;;4903512;28;90252;-31
2022/07/08 02:00:45;;;;;;;4.32;3.03;;;13.40;99.90;;;;;;4903387;28;90297;-33
2022/07/08 02:03:11;;;;;;;7.30;3.13;;;13.40;99.90;;;;;;4903610;28;89668;-31
2022/07/08 02:05:37;;;;;;;4.70;2.53;;;13.30;99.90;;;;;;4903901;28;88718;-30
2022/07/08 02:08:03;;;;;;;4.15;2.50;;;13.30;99.90;;;;;;4903940;28;88968;-31
2022/07/08 02:12:18;;;;;;;8.18;2.97;;;13.20;99.90;;;;;;4904404;28;88919;-32
2022/07/08 02:13:16;;;;;;;9.13;2.95;;;13.20;99.90;;;;;;4903639;28;90234;-34
2022/07/08 02:15:42;;;;;;;6.55;3.00;;;13.10;99.90;;;;;;4903936;28;89881;-35
2022/07/08 02:18:08;;;;;;;2.95;2.75;;;13.10;99.90;;;;;;4903493;28;88138;-31
2022/07/08 02:20:33;;;;;;;4.38;2.30;;;13.10;99.90;;;;;;4903089;28;90283;-33
2022/07/08 02:22:59;;;;;;;8.27;2.50;;;13.00;99.90;;;;;;4903293;28;90550;-32
2022/07/08 02:25:24;;;;;;;4.30;1.98;;;13.00;99.90;;;;;;4903925;28;90667;-32
2022/07/08 02:27:50;;;;;;;6.18;2.80;;;12.90;99.90;;;;;;4904183;28;87833;-32
2022/07/08 02:30:15;;;;;;;10.02;3.20;;;12.90;99.90;;;;;;4903169;28;95149;-32
2022/07/08 02:32:41;;;;;;;4.45;2.85;;;12.90;99.90;;;;;;4903450;28;89817;-32
2022/07/08 02:35:07;;;;;;;6.38;2.72;;;12.80;99.90;;;;;;4903379;28;89460;-32
2022/07/08 02:37:33;;;;;;;8.18;2.95;;;12.80;99.90;;;;;;4902656;28;88143;-31
2022/07/08 02:39:58;;;;;;;8.25;2.85;;;12.80;99.90;;;;;;4904415;28;90777;-33
2022/07/08 02:42:24;;;;;;;6.32;2.85;;;12.70;99.90;;;;;;4903303;28;89748;-33
2022/07/08 02:44:49;;;;;;;6.47;3.00;;;12.70;99.90;;;;;;4903486;28;90426;-32
2022/07/08 02:47:15;;;;;;;3.97;2.60;;;12.70;99.90;;;;;;4903168;28;89621;-31
2022/07/08 02:49:41;;;;;;;6.20;2.78;;;12.70;99.90;;;;;;4903469;28;90108;-30
2022/07/08 02:52:07;;;;;;;9.90;2.90;;;12.70;99.90;;;;;;4903736;28;89696;-31
2022/07/08 02:54:32;;;;;;;8.50;3.28;;;12.70;99.90;;;;;;4902643;28;89709;-31
2022/07/08 02:56:58;;;;;;;8.88;3.35;;;12.70;99.90;;;;;;4903627;28;88991;-32
2022/07/08 02:59:24;;;;;;;4.75;2.83;;;12.60;99.90;;;;;;4901819;28;90226;-30
2022/07/08 03:01:49;;;;;;;12.63;2.90;;;12.60;99.90;;;;;;4903949;28;88493;-34
2022/07/08 03:04:15;;;;;;;8.70;4.22;;;12.50;99.90;;;;;;4902547;28;89190;-33
2022/07/08 03:06:41;;;;;;;7.05;3.15;;;12.50;99.90;;;;;;4903220;28;89282;-32
2022/07/08 03:09:06;;;;;;;14.05;4.03;;;12.50;99.90;;;;;;4902669;28;90303;-31
2022/07/08 03:11:32;;;;;;;4.35;2.40;;;12.50;99.90;;;;;;4901915;28;90755;-30
2022/07/08 03:13:57;;;;;;;7.78;4.13;;;12.50;99.90;;;;;;4903127;28;90498;-37
2022/07/08 03:16:23;;;;;;;15.15;4.00;;;12.50;99.90;;;;;;4902792;28;89162;-30
2022/07/08 03:18:48;;;;;;;5.50;3.17;;;12.50;99.90;;;;;;4902770;28;90116;-35
2022/07/08 03:21:14;;;;;;;13.43;3.75;;;12.50;99.90;;;;;;4902431;28;90263;-33
2022/07/08 03:23:40;;;;;;;4.85;2.58;;;12.50;99.90;;;;;;4902502;28;89643;-35
2022/07/08 03:26:05;;;;;;;13.55;3.22;;;12.50;99.90;;;;;;4903161;28;88716;-32
2022/07/08 03:28:31;;;;;;;5.82;2.92;;;12.50;99.90;;;;;;4902604;28;90179;-30
2022/07/08 03:30:57;;;;;;;8.05;3.55;;;12.50;99.90;;;;;;4903226;28;89230;-30
2022/07/08 03:33:22;;;;;;;7.63;2.70;;;12.50;99.90;;;;;;4902340;28;89347;-32
2022/07/08 03:35:48;;;;;;;4.50;2.20;;;12.50;99.90;;;;;;4902427;28;89896;-32
2022/07/08 03:38:14;;;;;;;9.38;3.53;;;12.50;99.90;;;;;;4902807;28;91763;-31
2022/07/08 03:43:24;;;;;;;8.77;3.60;;;12.50;99.90;;;;;;4902203;28;89528;-32
2022/07/08 03:45:49;;;;;;;3.50;3.08;;;12.60;99.90;;;;;;4902233;28;88961;-34
2022/07/08 03:48:15;;;;;;;4.53;2.65;;;12.50;99.90;;;;;;4902797;28;90240;-33
2022/07/08 03:50:40;;;;;;;4.43;2.75;;;12.60;99.90;;;;;;4902035;28;90550;-32
2022/07/08 03:53:06;;;;;;;7.03;3.10;;;12.50;99.90;;;;;;4902324;28;90568;-32
2022/07/08 03:55:32;;;;;;;5.68;2.83;;;12.60;99.90;;;;;;4902599;28;89304;-30
2022/07/08 03:57:58;;;;;;;9.20;3.38;;;12.50;99.90;;;;;;4901684;28;89005;-34
2022/07/08 04:00:24;;;;;;;11.27;3.03;;;12.50;99.90;;;;;;4901866;28;90834;-30
2022/07/08 04:02:49;;;;;;;5.93;3.85;;;12.60;99.90;;;;;;4901082;28;90260;-33
2022/07/08 04:05:15;;;;;;;7.30;2.88;;;12.60;99.90;;;;;;4902461;28;89502;-33
2022/07/08 04:07:40;;;;;;;4.35;3.20;;;12.60;99.90;;;;;;4902139;28;89107;-33
2022/07/08 04:10:07;;;;;;;8.73;3.47;;;12.60;99.90;;;;;;4901683;28;89766;-34
2022/07/08 04:12:33;;;;;;;12.48;3.53;;;12.70;99.90;;;;;;4902589;28;89538;-31
2022/07/08 04:14:59;;;;;;;4.93;3.72;;;12.70;99.90;;;;;;4901856;28;88087;-32
2022/07/08 04:17:24;;;;;;;12.40;5.18;;;12.70;99.90;;;;;;4902302;28;89249;-34
2022/07/08 04:19:50;;;;;;;9.70;3.58;;;12.80;99.90;;;;;;4901523;28;88151;-32
2022/07/08 04:22:15;;;;;;;10.48;3.88;;;12.80;99.90;;;;;;4902253;28;88612;-35
2022/07/08 04:24:41;;;;;;;5.78;3.97;;;12.80;99.90;;;;;;4902134;28;89678;-30
2022/07/08 04:27:07;;;;;;;8.68;3.50;;;12.80;99.90;;;;;;4901222;28;90300;-31
2022/07/08 04:29:33;;;;;;;10.27;3.80;;;12.90;99.90;;;;;;4902082;28;89125;-30
2022/07/08 04:31:59;;;;;;;5.20;2.58;;;12.90;99.90;;;;;;4901457;28;90959;-32
2022/07/08 04:34:24;;;;;;;6.72;2.80;;;13.00;99.90;;;;;;4902292;28;88592;-31
2022/07/08 04:36:50;;;;;;;13.25;3.17;;;13.10;99.90;;;;;;4901474;28;91473;-32
2022/07/08 04:39:15;;;;;;;5.32;3.05;;;13.20;99.90;;;;;;4901044;28;89923;-33
2022/07/08 04:41:41;;;;;;;7.78;4.45;;;13.40;99.90;;;;;;4901910;28;89380;-33
2022/07/08 04:44:06;;;;;;;5.43;2.88;;;13.50;99.90;;;;;;4901557;28;88811;-34
2022/07/08 04:46:32;;;;;;;7.28;3.20;;;13.70;99.90;;;;;;4901577;28;90350;-32
2022/07/08 04:48:58;;;;;;;6.88;3.22;;;13.80;99.90;;;;;;4900991;28;90463;-32
2022/07/08 04:51:23;;;;;;;3.42;2.97;;;13.80;99.90;;;;;;4901392;28;90532;-30
2022/07/08 04:53:49;;;;;;;4.40;2.55;;;14.00;99.90;;;;;;4901585;28;89323;-31
2022/07/08 04:56:15;;;;;;;10.88;3.80;;;14.10;99.90;;;;;;4900995;28;88812;-32
2022/07/08 04:58:40;;;;;;;6.80;3.47;;;14.20;99.90;;;;;;4902188;28;89750;-31
2022/07/08 05:01:06;;;;;;;8.20;3.05;;;14.30;99.90;;;;;;4901350;28;89187;-34
2022/07/08 05:03:32;;;;;;;5.15;2.90;;;14.40;99.90;;;;;;4901259;28;88359;-31
2022/07/08 05:05:57;;;;;;;3.10;2.60;;;14.50;99.90;;;;;;4901124;28;90331;-38
2022/07/08 05:08:23;;;;;;;10.88;2.85;;;14.60;99.90;;;;;;4900958;28;89947;-31
2022/07/08 05:10:48;;;;;;;5.60;2.85;;;14.70;99.90;;;;;;4902109;28;89076;-31
2022/07/08 05:13:14;;;;;;;6.53;3.15;;;14.90;99.90;;;;;;4900613;28;89065;-33
2022/07/08 05:15:40;;;;;;;10.38;2.85;;;15.10;99.90;;;;;;4901672;28;90353;-33
2022/07/08 05:18:05;;;;;;;5.93;3.53;;;15.30;99.90;;;;;;4900699;28;89520;-31
2022/07/08 05:20:32;;;;;;;5.60;3.15;;;15.40;99.90;;;;;;4901350;28;88492;-33
2022/07/08 05:22:57;;;;;;;6.45;2.85;;;15.60;99.90;;;;;;4900642;28;89379;-36
2022/07/08 05:25:23;;;;;;;14.48;3.17;;;15.80;99.90;;;;;;4900596;28;89460;-32
2022/07/08 05:27:49;;;;;;;7.25;2.92;;;16.00;99.90;;;;;;4900922;28;89477;-31
2022/07/08 05:30:15;;;;;;;4.47;3.47;;;16.20;99.90;;;;;;4900570;28;89518;-31
2022/07/08 05:32:40;;;;;;;4.47;3.00;;;16.30;99.90;;;;;;4901450;28;89557;-30
2022/07/08 05:35:08;;;;;;;6.93;2.30;;;16.40;99.90;;;;;;4901184;28;90254;-33
2022/07/08 05:37:37;;;;;;;7.80;3.30;;;16.50;99.90;;;;;;4900393;28;90541;-32
2022/07/08 05:40:10;;;;;;;6.03;2.22;;;16.70;99.90;;;;;;4900105;28;91027;-30
2022/07/08 05:42:36;;;;;;;9.15;3.22;;;16.90;99.90;;;;;;4901561;28;89817;-31
2022/07/08 05:45:02;;;;;;;6.40;2.17;;;17.10;99.90;;;;;;4900473;28;90258;-31
2022/07/08 05:47:27;;;;;;;5.43;1.98;;;17.30;99.90;;;;;;4900394;28;90632;-32
2022/07/08 05:49:53;;;;;;;5.75;2.65;;;17.50;99.90;;;;;;4900321;28;89347;-32
2022/07/08 05:52:18;;;;;;;5.40;2.47;;;17.50;99.90;;;;;;4900609;28;90546;-31
2022/07/08 05:54:47;;;;;;;4.97;3.00;;;17.40;99.90;;;;;;4901096;28;89072;-31
2022/07/08 05:57:14;;;;;;;9.75;2.45;;;17.40;99.90;;;;;;4899582;28;89431;-32
2022/07/08 05:59:40;;;;;;;9.90;2.75;;;17.30;99.90;;;;;;4900421;28;89116;-33
2022/07/08 06:02:06;;;;;;;5.25;2.30;;;17.20;99.90;;;;;;4900513;28;90174;-31
2022/07/08 06:04:31;;;;;;;10.45;2.30;;;17.20;99.90;;;;;;4900017;28;90658;-32
2022/07/08 06:06:57;;;;;;;6.88;3.40;;;17.20;99.90;;;;;;4901412;28;89627;-31
2022/07/08 06:09:23;;;;;;;10.65;3.30;;;17.40;99.90;;;;;;4900431;28;91037;-32
2022/07/08 06:11:48;;;;;;;6.38;2.88;;;17.50;99.90;;;;;;4901482;28;89270;-32
2022/07/08 06:14:14;;;;;;;4.25;2.75;;;17.60;99.90;;;;;;4899771;28;90386;-32
2022/07/08 06:16:40;;;;;;;6.30;3.17;;;17.60;99.90;;;;;;4899582;28;89764;-33
2022/07/08 06:19:05;;;;;;;6.05;2.08;;;17.70;99.90;;;;;;4900880;28;89479;-31
2022/07/08 06:21:31;;;;;;;5.63;2.55;;;17.70;99.90;;;;;;4917653;28;87630;-32
2022/07/08 06:23:56;;;;;;;5.78;2.13;;;18.00;99.90;;;;;;4920106;28;91039;-31
2022/07/08 06:26:22;;;;;;;7.65;2.00;;;18.10;99.90;;;;;;4919068;28;90456;-33
2022/07/08 06:28:48;;;;;;;7.78;2.65;;;18.00;99.90;;;;;;4919543;28;90401;-30
2022/07/08 06:31:13;;;;;;;8.15;3.10;;;18.00;99.90;;;;;;4919541;28;89591;-31
2022/07/08 06:33:39;;;;;;;6.15;2.10;;;17.90;99.90;;;;;;4919685;28;90518;-31
2022/07/08 06:36:05;;;;;;;4.43;1.98;;;17.90;99.90;;;;;;4923084;28;90538;-31
2022/07/08 06:38:31;;;;;;;13.27;3.25;;;17.80;99.90;;;;;;4921942;28;89442;-34
2022/07/08 06:40:56;;;;;;;9.25;3.25;;;17.70;99.90;;;;;;4922797;28;89134;-33
2022/07/08 06:43:22;;;;;;;7.57;2.28;;;17.60;99.90;;;;;;4922317;28;90001;-32
2022/07/08 06:45:48;;;;;;;4.75;2.45;;;17.50;99.90;;;;;;4922250;28;89268;-32
2022/07/08 06:48:14;;;;;;;5.78;2.83;;;17.40;99.90;;;;;;4923425;28;89510;-30
2022/07/08 06:50:40;;;;;;;4.85;2.33;;;17.30;99.90;;;;;;4921966;28;89942;-31
2022/07/08 06:53:05;;;;;;;8.43;2.97;;;17.30;99.90;;;;;;4922838;28;90647;-35
2022/07/08 06:55:31;;;;;;;14.40;2.17;;;17.20;99.90;;;;;;4922137;28;89787;-31
2022/07/08 06:57:57;;;;;;;7.07;2.72;;;17.20;99.90;;;;;;4922099;28;89951;-35
2022/07/08 07:00:23;;;;;;;10.35;3.13;;;17.20;99.90;;;;;;4906515;28;88244;-32
2022/07/08 07:02:49;;;;;;;8.35;3.05;;;17.30;99.90;;;;;;4901716;28;90567;-33
2022/07/08 07:05:15;;;;;;;6.95;2.83;;;17.30;99.90;;;;;;4901915;28;88983;-33
2022/07/08 07:07:40;;;;;;;6.07;2.60;;;17.30;99.90;;;;;;4902840;28;89651;-33
2022/07/08 07:10:07;;;;;;;4.72;2.00;;;17.40;99.90;;;;;;4902566;28;90031;-34
2022/07/08 07:12:32;;;;;;;3.53;1.58;;;17.40;99.90;;;;;;4903060;28;90259;-32
2022/07/08 07:14:58;;;;;;;7.53;3.05;;;17.50;99.90;;;;;;4901128;28;91084;-34
2022/07/08 07:17:24;;;;;;;9.20;3.10;;;17.50;99.90;;;;;;4902998;28;91373;-31
2022/07/08 07:19:50;;;;;;;7.07;2.25;;;17.50;99.90;;;;;;4902763;28;90184;-31
2022/07/08 07:22:16;;;;;;;4.53;2.42;;;17.60;99.90;;;;;;4902418;28;90630;-35
2022/07/08 07:24:42;;;;;;;5.10;2.55;;;17.60;99.90;;;;;;4902317;28;90006;-33
2022/07/08 07:27:08;;;;;;;7.05;2.25;;;17.60;99.90;;;;;;4902427;28;89890;-31
2022/07/08 07:29:34;;;;;;;4.50;2.30;;;17.70;99.90;;;;;;4908922;28;88882;-32
2022/07/08 07:32:00;;;;;;;6.70;2.55;;;17.70;99.90;;;;;;4913598;28;91152;-32
2022/07/08 07:34:26;;;;;;;5.88;2.83;;;17.70;99.90;;;;;;4900890;28;89873;-32
2022/07/08 07:36:51;;;;;;;9.10;2.92;;;17.70;99.90;;;;;;4900863;28;88709;-31
2022/07/08 07:39:17;;;;;;;2.55;1.80;;;17.70;99.90;;;;;;4899670;28;89892;-30
2022/07/08 07:41:43;;;;;;;9.88;3.38;;;17.80;99.90;;;;;;4899943;28;89881;-31
2022/07/08 07:44:08;;;;;;;8.32;2.53;;;17.80;99.90;;;;;;4899930;28;89841;-32
2022/07/08 07:46:34;;;;;;;8.48;2.67;;;17.80;99.90;;;;;;4899914;28;89267;-34
2022/07/08 07:49:00;;;;;;;9.13;2.58;;;17.80;99.90;;;;;;4900643;28;89076;-31
2022/07/08 07:51:26;;;;;;;12.25;2.88;;;17.80;99.90;;;;;;4899644;28;90233;-31
2022/07/08 07:53:52;;;;;;;6.28;2.67;;;17.80;99.90;;;;;;4901732;28;89751;-32
2022/07/08 07:56:17;;;;;;;4.65;1.75;;;17.90;99.90;;;;;;4901974;28;89711;-31
2022/07/08 07:58:43;;;;;;;5.45;2.70;;;17.90;99.90;;;;;;4903008;28;89625;-31
2022/07/08 08:01:09;;;;;;;7.47;2.17;;;18.00;99.90;;;;;;4902148;28;90529;-31
2022/07/08 08:03:34;;;;;;;4.80;2.88;;;18.00;99.90;;;;;;4900849;28;91400;-34
2022/07/08 08:06:00;;;;;;;3.33;1.67;;;17.90;99.90;;;;;;4901160;28;90825;-30
2022/07/08 08:08:26;;;;;;;5.47;2.90;;;17.90;99.90;;;;;;4901724;28;88824;-33
2022/07/08 08:10:53;;;;;;;15.23;4.03;;;17.80;99.90;;;;;;4902008;28;90335;-31
2022/07/08 08:13:19;;;;;;;7.22;2.00;;;17.90;99.90;;;;;;4901761;28;89673;-33
2022/07/08 08:15:45;;;;;;;9.35;2.50;;;18.00;99.90;;;;;;4901713;28;89885;-31
2022/07/08 08:18:10;;;;;;;2.85;2.17;;;18.00;99.90;;;;;;4902315;28;89376;-32
2022/07/08 08:20:36;;;;;;;12.18;3.97;;;18.00;99.90;;;;;;4902606;28;89996;-30
2022/07/08 08:23:03;;;;;;;2.95;1.90;;;18.00;99.90;;;;;;4901297;28;89731;-33
2022/07/08 08:25:28;;;;;;;5.85;2.30;;;18.00;99.90;;;;;;4902430;28;89807;-31
2022/07/08 08:27:54;;;;;;;4.13;1.98;;;18.00;99.90;;;;;;4901455;28;89692;-33
2022/07/08 08:30:20;;;;;;;9.05;3.58;;;18.00;99.90;;;;;;4901923;28;90083;-31
2022/07/08 08:32:46;;;;;;;4.10;3.28;;;18.00;99.90;;;;;;4901731;28;89768;-32
2022/07/08 08:35:12;;;;;;;5.70;3.17;;;18.10;99.90;;;;;;4901514;28;89999;-33
2022/07/08 08:37:37;;;;;;;5.88;2.33;;;18.10;99.90;;;;;;4902717;28;89319;-29
2022/07/08 08:40:05;;;;;;;6.38;2.65;;;18.10;99.90;;;;;;4900754;28;90243;-30
2022/07/08 08:42:31;;;;;;;8.50;2.90;;;18.10;99.90;;;;;;4901391;28;89792;-31
2022/07/08 08:45:03;;;;;;;5.13;2.20;;;18.20;99.90;;;;;;4902088;28;89496;-32
2022/07/08 08:47:33;;;;;;;4.15;2.40;;;18.30;99.90;;;;;;4902277;28;88359;-31
2022/07/08 08:52:53;;;;;;;4.30;3.15;;;18.40;99.90;;;;;;4901370;28;90761;-32
2022/07/08 08:55:31;;;;;;;7.47;2.78;;;18.30;99.90;;;;;;4901072;28;90856;-33
2022/07/08 08:57:58;;;;;;;6.93;2.58;;;18.30;99.90;;;;;;4900891;28;89868;-31
2022/07/08 09:00:25;;;;;;;3.45;1.95;;;18.30;99.90;;;;;;4915934;28;92309;-32
2022/07/08 09:02:55;;;;;;;5.80;3.33;;;18.30;99.90;;;;;;4901042;28;90976;-31
2022/07/08 09:05:21;;;;;;;4.90;2.63;;;18.30;99.90;;;;;;4901143;28;89913;-32
2022/07/08 09:07:47;;;;;;;8.55;3.35;;;18.30;99.90;;;;;;4901254;28;89444;-30
2022/07/08 09:10:17;;;;;;;3.40;1.83;;;18.30;99.90;;;;;;4901817;28;90272;-34
2022/07/08 09:13:05;;;;;;;4.13;2.53;;;18.40;99.90;;;;;;4901489;28;89698;-32
2022/07/08 09:15:41;;;;;;;6.28;2.45;;;18.60;99.90;;;;;;4901693;28;89977;-32
2022/07/08 09:18:15;;;;;;;13.43;3.20;;;18.60;99.90;;;;;;4900726;28;89264;-33
2022/07/08 09:20:45;;;;;;;9.95;3.03;;;18.70;99.90;;;;;;4900571;28;90654;-32
2022/07/08 09:23:23;;;;;;;10.27;2.92;;;18.90;99.90;;;;;;4901094;28;89582;-32
2022/07/08 09:26:00;;;;;;;12.32;3.45;;;19.00;99.90;;;;;;4901434;28;89560;-33
2022/07/08 09:28:34;;;;;;;7.25;3.90;;;19.00;99.90;;;;;;4901116;28;88965;-31
2022/07/08 09:31:02;;;;;;;9.43;3.53;;;19.00;99.90;;;;;;4900790;28;90345;-31
2022/07/08 09:33:28;;;;;;;;;;;19.00;99.90;;;;;;4901197;28;89791;-32
2022/07/08 09:35:55;;;;;;;12.85;3.53;;;19.00;99.90;;;;;;4902477;28;90531;-30
2022/07/08 09:38:22;;;;;;;8.02;3.78;;;18.90;99.90;;;;;;4915859;28;90132;-30
2022/07/08 09:40:55;;;;;;;5.53;2.45;;;18.90;99.90;;;;;;4900620;28;90228;-30
2022/07/08 09:43:21;;;;;;;5.07;2.40;;;19.00;99.90;;;;;;4900284;28;92159;-33
2022/07/08 09:45:47;;;;;;;9.98;2.55;;;18.90;99.90;;;;;;4901078;28;90064;-31
2022/07/08 09:48:13;;;;;;;6.82;3.00;;;19.00;99.90;;;;;;4901758;28;88782;-31
2022/07/08 09:50:41;;;;;;;7.05;2.75;;;19.00;99.90;;;;;;4900143;28;89661;-34
2022/07/08 09:53:15;;;;;;;3.88;2.47;;;19.00;99.90;;;;;;4900728;28;89806;-33
2022/07/08 09:55:51;;;;;;;5.68;2.78;;;18.90;99.90;;;;;;4900957;28;89515;-33
2022/07/08 09:58:19;;;;;;;7.00;3.22;;;18.90;99.90;;;;;;4900749;28;89476;-32
2022/07/08 10:00:45;;;;;;;7.85;3.53;;;19.00;99.90;;;;;;4900802;28;90360;-34
2022/07/08 10:03:12;;;;;;;8.70;2.83;;;19.00;99.90;;;;;;4900362;28;90115;-33
2022/07/08 10:05:38;;;;;;;14.82;3.55;;;19.00;99.90;;;;;;4900571;28;90106;-32
2022/07/08 10:08:04;;;;;;;8.27;3.00;;;19.00;99.90;;;;;;4901307;28;88709;-31
2022/07/08 10:10:32;;;;;;;6.78;3.67;;;19.10;99.90;;;;;;4904577;28;89305;-33
2022/07/08 10:12:58;;;;;;;;;;;19.10;99.90;;;;;;4903494;28;89674;-32
2022/07/08 10:15:25;;;;;;;4.60;2.50;;;19.10;99.90;;;;;;4905704;28;89022;-31
2022/07/08 10:17:51;;;;;;;12.97;4.13;;;19.10;99.90;;;;;;4904429;28;89160;-32
2022/07/08 10:20:18;;;;;;;7.88;3.45;;;19.10;99.90;;;;;;4903174;28;90282;-31
2022/07/08 10:22:49;;;;;;;4.87;3.53;;;19.10;99.90;;;;;;4903706;28;89919;-31
2022/07/08 10:25:17;;;;;;;5.00;3.15;;;19.10;99.90;;;;;;4903166;28;89807;-34
2022/07/08 10:27:42;;;;;;;10.00;3.63;;;19.10;99.90;;;;;;4903696;28;89723;-30
2022/07/08 10:30:15;;;;;;;7.88;3.05;;;19.10;99.90;;;;;;4903575;28;89381;-30
2022/07/08 10:32:44;;;;;;;4.80;2.35;;;19.10;99.90;;;;;;4903517;28;89620;-33
2022/07/08 10:35:12;;;;;;;5.70;2.88;;;19.20;99.90;;;;;;4902914;28;90500;-33
2022/07/08 10:37:56;;;;;;;5.72;2.42;;;19.20;99.90;;;;;;4904387;28;89478;-32
2022/07/08 10:40:40;;;;;;;4.75;3.58;;;19.30;99.90;;;;;;4903043;28;89287;-30
2022/07/08 10:43:20;;;;;;;4.80;2.33;;;19.30;99.90;;;;;;4904013;28;89490;-33
2022/07/08 10:46:02;;;;;;;6.50;3.70;;;19.30;99.90;;;;;;4903647;28;89433;-32
2022/07/08 10:49:00;;;;;;;3.13;2.88;;;19.30;99.90;;;;;;4903345;28;88984;-30
2022/07/08 10:51:29;;;;;;;5.63;3.45;;;19.30;99.90;;;;;;4902791;28;93648;-32
2022/07/08 10:54:00;;;;;;;8.98;4.28;;;19.30;99.90;;;;;;4902921;28;90284;-31
2022/07/08 10:56:54;;;;;;;7.93;3.78;;;19.40;99.90;;;;;;4902862;28;89309;-35
2022/07/08 10:59:24;;;;;;;5.05;3.15;;;19.60;99.90;;;;;;4920462;28;89127;-34
2022/07/08 11:02:03;;;;;;;4.53;3.25;;;19.70;99.90;;;;;;4902577;28;90300;-35
2022/07/08 11:04:34;;;;;;;6.60;3.03;;;20.00;99.90;;;;;;4903301;28;90090;-32
2022/07/08 11:07:17;;;;;;;7.28;2.85;;;20.20;99.90;;;;;;4902706;28;89620;-31
2022/07/08 11:09:45;;;;;;;7.47;3.40;;;20.40;99.90;;;;;;4900184;28;89137;-31
2022/07/08 11:12:21;;;;;;;12.20;3.50;;;20.60;99.90;;;;;;4901887;28;89237;-33
2022/07/08 11:14:49;;;;;;;9.50;3.45;;;20.60;99.90;;;;;;4902656;28;90057;-32
2022/07/08 11:17:25;;;;;;;10.60;4.15;;;20.60;99.90;;;;;;4903704;28;90043;-31
2022/07/08 11:19:53;;;;;;;4.07;2.92;;;20.60;99.90;;;;;;4905370;28;89686;-31
2022/07/08 11:22:20;;;;;;;7.60;3.47;;;20.70;99.90;;;;;;4921536;28;90366;-33
2022/07/08 11:24:47;;;;;;;7.53;3.53;;;20.80;99.90;;;;;;4921613;28;90641;-32
2022/07/08 11:27:13;;;;;;;4.20;2.95;;;20.90;99.90;;;;;;4921791;28;92738;-31
2022/07/08 11:29:47;;;;;;;8.65;4.30;;;21.10;99.90;;;;;;4922762;28;89653;-31
2022/07/08 11:32:12;;;;;;;8.63;4.57;;;21.20;99.90;;;;;;4921658;28;91156;-35
2022/07/08 11:34:38;;;;;;;8.60;2.95;;;21.40;99.90;;;;;;4920906;28;90707;-32
2022/07/08 11:37:04;;;;;;;4.78;2.58;;;21.50;99.90;;;;;;4921366;28;89666;-31
2022/07/08 11:39:29;;;;;;;5.47;3.08;;;21.50;99.90;;;;;;4905212;28;89607;-34
2022/07/08 11:41:55;;;;;;;6.00;3.20;;;21.60;99.90;;;;;;4901431;28;91010;-31
2022/07/08 11:44:22;;;;;;;5.20;3.95;;;21.70;99.90;;;;;;4901284;28;89844;-33
2022/07/08 11:46:52;;;;;;;8.65;3.22;;;21.80;99.90;;;;;;4912526;28;88981;-33
2022/07/08 11:49:19;;;;;;;11.75;4.18;;;21.80;99.90;;;;;;4919369;28;89138;-32
2022/07/08 11:51:45;;;;;;;5.32;2.92;;;21.80;99.90;;;;;;4919390;28;90340;-33
2022/07/08 11:54:14;;;;;;;4.15;2.90;;;21.80;99.90;;;;;;4919422;28;88604;-34
2022/07/08 11:56:41;;;;;;;6.30;3.00;;;21.80;99.90;;;;;;4913318;28;89645;-31
2022/07/08 11:59:07;;;;;;;7.63;3.75;;;21.90;99.90;;;;;;4916935;28;89329;-32
2022/07/08 12:01:35;;;;;;;7.60;3.35;;;22.00;99.90;;;;;;4899944;28;90136;-32
2022/07/08 12:04:07;;;;;;;5.85;3.17;;;22.00;99.90;;;;;;4943483;23;89073;-34
2022/07/08 12:06:34;;;;;;;3.65;2.78;;;22.00;99.90;;;;;;4918970;28;90074;-33
2022/07/08 12:09:09;;;;;;;8.82;3.38;;;22.00;99.90;;;;;;4938118;28;89253;-31
2022/07/08 12:11:40;;;;;;;4.60;3.35;;;22.00;99.90;;;;;;4938508;28;91309;-33
2022/07/08 12:14:08;;;;;;;6.75;3.13;;;22.10;99.90;;;;;;4930732;28;91063;-33
2022/07/08 12:16:40;;;;;;;10.87;4.30;;;22.20;99.90;;;;;;4938250;28;90262;-32
2022/07/08 12:19:05;;;;;;;3.72;2.92;;;22.20;99.90;;;;;;4939127;28;89945;-31
2022/07/08 12:21:31;;;;;;;9.85;3.45;;;22.40;99.90;;;;;;4938320;28;89740;-32
2022/07/08 12:24:02;;;;;;;6.50;2.70;;;22.40;99.90;;;;;;4938666;28;90263;-34
2022/07/08 12:26:28;;;;;;;8.80;3.25;;;22.30;99.90;;;;;;4938119;28;89312;-34
2022/07/08 12:28:54;;;;;;;6.75;2.92;;;22.20;99.90;;;;;;4936013;28;89598;-31
2022/07/08 12:31:39;;;;;;;6.47;4.03;;;22.20;99.90;;;;;;4918103;28;90317;-32
2022/07/08 12:34:09;;;;;;;3.70;2.80;;;22.20;99.90;;;;;;4917491;28;89649;-34
2022/07/08 12:36:34;;;;;;;6.18;3.83;;;22.20;99.90;;;;;;4917706;28;89903;-34
2022/07/08 12:39:14;;;;;;;6.43;2.72;;;22.20;99.90;;;;;;4917850;28;90342;-31
2022/07/08 12:41:40;;;;;;;4.18;3.78;;;22.30;99.90;;;;;;4919172;28;90482;-32
2022/07/08 12:44:28;;;;;;;3.83;3.45;;;22.40;99.90;;;;;;4918173;28;89486;-33
2022/07/08 12:46:54;;;;;;;8.30;2.83;;;22.60;99.90;;;;;;4918367;28;89976;-34
2022/07/08 12:49:30;;;;;;;8.80;3.28;;;22.80;99.90;;;;;;4918881;28;89374;-32
2022/07/08 12:51:57;;;;;;;8.55;3.17;;;23.00;99.90;;;;;;4938029;28;90097;-32